Time;durP1;ratioP1;P1;durP2;ratioP2;P2;SDS_P1;SDS_P2;PMS_P1;PMS_P2;Temp;Humidity;BMP_temperature;BMP_pressure;BME280_temperature;BME280_humidity;BME280_pressure;Samples;Min_cycle;Max_cycle;Signal;HPM_P1;HPM_P2
2021/10/28 00:13:30;;;;;;;12.68;3.38;;;13.40;99.90;;;;;;5083592;28;20797;-58
2021/10/28 00:15:58;;;;;;;10.20;3.78;;;13.40;99.90;;;;;;5080198;28;20099;-58
2021/10/28 00:18:49;;;;;;;12.05;3.92;;;13.30;99.90;;;;;;5080129;28;20044;-58
2021/10/28 00:21:16;;;;;;;10.27;4.03;;;13.30;99.90;;;;;;5082860;28;20148;-58
2021/10/28 00:23:45;;;;;;;10.68;3.05;;;13.30;99.90;;;;;;5080987;28;20080;-58
2021/10/28 00:26:16;;;;;;;9.88;3.75;;;13.30;99.90;;;;;;5080530;28;20609;-58
2021/10/28 00:28:42;;;;;;;12.88;3.72;;;13.20;99.90;;;;;;5081252;28;20127;-58
2021/10/28 00:31:09;;;;;;;7.75;3.70;;;13.20;99.90;;;;;;5084399;28;20159;-59
2021/10/28 00:33:38;;;;;;;12.77;3.88;;;13.20;99.90;;;;;;5083063;28;20059;-58
2021/10/28 00:36:06;;;;;;;12.20;3.47;;;13.20;99.90;;;;;;5083302;28;20075;-58
2021/10/28 00:38:33;;;;;;;9.20;3.17;;;13.20;99.90;;;;;;5080836;28;20124;-58
2021/10/28 00:41:01;;;;;;;10.52;3.40;;;13.20;99.90;;;;;;5079903;28;20048;-58
2021/10/28 00:43:29;;;;;;;12.27;3.63;;;13.20;99.90;;;;;;5080093;28;20091;-58
2021/10/28 00:45:56;;;;;;;9.75;3.30;;;13.20;99.90;;;;;;5081259;28;20101;-58
2021/10/28 00:48:23;;;;;;;14.05;4.55;;;13.10;99.90;;;;;;5087173;28;20066;-58
2021/10/28 00:50:51;;;;;;;7.68;2.67;;;13.10;99.90;;;;;;5088405;28;20079;-57
2021/10/28 00:53:18;;;;;;;12.10;3.92;;;13.10;99.90;;;;;;5088160;28;20079;-58
2021/10/28 00:55:45;;;;;;;9.68;3.83;;;13.10;99.90;;;;;;5088275;28;20487;-58
2021/10/28 00:58:12;;;;;;;10.50;4.07;;;13.10;99.90;;;;;;5086653;28;20087;-58
2021/10/28 01:00:39;;;;;;;9.38;3.20;;;13.10;99.90;;;;;;5086832;28;20080;-58
2021/10/28 01:03:06;;;;;;;10.55;4.00;;;13.10;99.90;;;;;;5083700;28;20048;-58
2021/10/28 01:05:33;;;;;;;7.90;2.83;;;13.10;99.90;;;;;;5084545;28;20044;-58
2021/10/28 01:08:00;;;;;;;10.50;3.20;;;13.10;99.90;;;;;;5087245;28;20135;-58
2021/10/28 01:10:26;;;;;;;9.82;3.65;;;13.10;99.90;;;;;;5085609;28;20127;-58
2021/10/28 01:12:53;;;;;;;10.38;3.35;;;13.10;99.90;;;;;;5086953;28;20171;-59
2021/10/28 01:15:20;;;;;;;10.27;4.18;;;13.10;99.90;;;;;;5087652;28;20099;-58
2021/10/28 01:17:47;;;;;;;16.42;4.00;;;13.10;99.90;;;;;;5087161;28;20079;-58
2021/10/28 01:20:14;;;;;;;7.70;4.72;;;13.10;99.90;;;;;;5087929;28;20131;-57
2021/10/28 01:22:43;;;;;;;10.32;3.58;;;13.20;99.90;;;;;;5087368;28;20541;-57
2021/10/28 01:25:13;;;;;;;8.45;3.40;;;13.10;99.90;;;;;;5087597;28;20079;-57
2021/10/28 01:27:42;;;;;;;7.90;3.17;;;13.10;99.90;;;;;;5078126;28;20655;-57
2021/10/28 01:30:09;;;;;;;8.82;3.40;;;13.10;99.90;;;;;;5086865;28;20127;-58
2021/10/28 01:32:36;;;;;;;9.80;3.33;;;13.10;99.90;;;;;;5086307;28;20040;-57
2021/10/28 01:35:03;;;;;;;6.50;2.33;;;13.10;99.90;;;;;;5089170;28;20127;-57
2021/10/28 01:37:30;;;;;;;7.75;3.60;;;13.10;99.90;;;;;;5089617;28;20471;-57
2021/10/28 01:39:57;;;;;;;10.27;3.10;;;13.10;99.90;;;;;;5089608;28;20079;-57
2021/10/28 01:42:24;;;;;;;9.55;3.55;;;13.10;99.90;;;;;;5089085;28;20127;-57
2021/10/28 01:44:51;;;;;;;10.77;3.58;;;13.10;99.90;;;;;;5088227;28;20123;-57
2021/10/28 01:47:17;;;;;;;14.50;4.60;;;13.10;99.90;;;;;;5084122;28;20726;-58
2021/10/28 01:49:45;;;;;;;8.45;3.08;;;13.10;99.90;;;;;;5085869;28;20048;-57
2021/10/28 01:52:12;;;;;;;8.05;3.75;;;13.10;99.90;;;;;;5088903;28;20047;-57
2021/10/28 01:54:39;;;;;;;11.93;4.10;;;13.00;99.90;;;;;;5088066;28;20403;-58
2021/10/28 01:57:16;;;;;;;9.05;3.28;;;13.00;99.90;;;;;;5087414;28;20120;-58
2021/10/28 01:59:45;;;;;;;6.55;3.60;;;13.00;99.90;;;;;;5084204;28;20046;-57
2021/10/28 02:02:12;;;;;;;9.25;4.03;;;13.00;99.90;;;;;;5084258;28;20126;-57
2021/10/28 02:04:39;;;;;;;9.68;4.45;;;13.00;99.90;;;;;;5083778;28;20141;-57
2021/10/28 02:07:06;;;;;;;9.95;4.32;;;13.00;99.90;;;;;;5086143;28;20075;-58
2021/10/28 02:09:33;;;;;;;6.03;3.78;;;12.90;99.90;;;;;;5085482;28;20075;-57
2021/10/28 02:12:00;;;;;;;13.38;5.00;;;12.90;99.90;;;;;;5084199;28;20123;-57
2021/10/28 02:14:27;;;;;;;12.40;3.97;;;12.90;99.90;;;;;;5082996;28;20088;-57
2021/10/28 02:16:53;;;;;;;6.85;4.07;;;12.80;99.90;;;;;;5079107;28;20139;-57
2021/10/28 02:19:20;;;;;;;7.32;3.92;;;12.80;99.90;;;;;;5084067;28;20058;-57
2021/10/28 02:21:47;;;;;;;13.40;5.30;;;12.80;99.90;;;;;;5083927;28;20131;-58
2021/10/28 02:24:14;;;;;;;9.18;5.03;;;12.70;99.90;;;;;;5085922;28;20044;-57
2021/10/28 02:26:41;;;;;;;8.75;5.20;;;12.70;99.90;;;;;;5083666;28;20082;-57
2021/10/28 02:29:07;;;;;;;13.98;5.35;;;12.70;99.90;;;;;;5083275;28;20123;-57
2021/10/28 02:31:35;;;;;;;11.43;4.97;;;12.70;99.90;;;;;;5084968;28;20056;-58
2021/10/28 02:34:02;;;;;;;10.02;5.28;;;12.70;99.90;;;;;;5084507;28;20056;-57
2021/10/28 02:36:29;;;;;;;8.60;5.18;;;12.70;99.90;;;;;;5081739;28;20114;-57
2021/10/28 02:38:56;;;;;;;13.85;6.00;;;12.70;99.90;;;;;;5083502;28;20044;-58
2021/10/28 02:41:22;;;;;;;17.35;5.75;;;12.70;99.90;;;;;;5085182;28;20151;-57
2021/10/28 02:43:49;;;;;;;13.20;6.20;;;12.70;99.90;;;;;;5083526;28;20238;-58
2021/10/28 02:46:16;;;;;;;11.35;5.80;;;12.70;99.90;;;;;;5084514;28;20532;-57
2021/10/28 02:48:43;;;;;;;12.45;5.72;;;12.70;99.90;;;;;;5084087;28;20075;-57
2021/10/28 02:51:10;;;;;;;11.65;5.70;;;12.70;99.90;;;;;;5085359;28;20131;-57
2021/10/28 02:53:37;;;;;;;11.55;6.05;;;12.60;99.90;;;;;;5084461;28;20178;-57
2021/10/28 02:56:04;;;;;;;10.98;6.45;;;12.60;99.90;;;;;;5085287;28;20131;-58
2021/10/28 02:58:31;;;;;;;11.30;6.15;;;12.60;99.90;;;;;;5083762;28;20131;-57
2021/10/28 03:00:57;;;;;;;10.85;6.95;;;12.60;99.90;;;;;;5085468;28;20128;-58
2021/10/28 03:03:25;;;;;;;10.90;6.47;;;12.60;99.90;;;;;;5083984;28;20472;-58
2021/10/28 03:05:51;;;;;;;14.18;5.65;;;12.50;99.90;;;;;;5085135;28;20518;-57
2021/10/28 03:08:20;;;;;;;14.30;6.50;;;12.50;99.90;;;;;;5083046;28;20487;-58
2021/10/28 03:10:47;;;;;;;11.93;5.80;;;12.50;99.90;;;;;;5084818;28;20486;-58
2021/10/28 03:13:18;;;;;;;18.63;7.55;;;12.50;99.90;;;;;;5084041;28;20131;-60
2021/10/28 03:15:46;;;;;;;11.20;6.03;;;12.50;99.90;;;;;;5084784;28;20475;-58
2021/10/28 03:19:07;;;;;;;13.43;6.30;;;12.50;99.90;;;;;;5083903;28;20071;-58
2021/10/28 03:26:31;;;;;;;10.30;6.50;;;12.40;99.90;;;;;;5083719;28;20503;-58
2021/10/28 03:28:58;;;;;;;11.55;5.53;;;12.40;99.90;;;;;;5081486;28;20075;-57
2021/10/28 03:31:25;;;;;;;11.88;5.35;;;12.40;99.90;;;;;;5084577;28;20143;-57
2021/10/28 03:33:52;;;;;;;8.88;5.72;;;12.40;99.90;;;;;;5083596;28;20551;-57
2021/10/28 03:36:32;;;;;;;15.30;6.10;;;12.30;99.90;;;;;;5084385;28;20375;-58
2021/10/28 03:39:15;;;;;;;11.27;5.97;;;12.30;99.90;;;;;;5084099;28;20044;-57
2021/10/28 03:47:14;;;;;;;10.88;5.43;;;12.30;99.90;;;;;;5085290;28;20083;-58
2021/10/28 04:19:31;;;;;;;9.27;4.57;;;12.30;99.90;;;;;;5103266;28;20538;-58
2021/10/28 04:28:53;;;;;;;8.02;4.45;;;12.20;99.90;;;;;;5089756;28;20141;-58
2021/10/28 04:30:22;;;;;;;9.38;4.97;;;12.20;99.90;;;;;;5083760;28;20068;-57
2021/10/28 04:32:49;;;;;;;11.45;5.47;;;12.20;99.90;;;;;;5083601;28;20601;-58
2021/10/28 04:35:16;;;;;;;10.98;5.45;;;12.20;99.90;;;;;;5084242;28;20123;-57
2021/10/28 04:37:44;;;;;;;13.45;5.47;;;12.20;99.90;;;;;;5085722;28;20086;-57
2021/10/28 04:40:12;;;;;;;10.73;5.00;;;12.10;99.90;;;;;;5087485;28;20670;-58
2021/10/28 04:42:39;;;;;;;10.57;5.22;;;12.20;99.90;;;;;;5086640;28;20047;-58
2021/10/28 04:45:06;;;;;;;8.52;4.20;;;12.20;99.90;;;;;;5084787;28;20076;-58
2021/10/28 04:47:33;;;;;;;14.15;5.55;;;12.20;99.90;;;;;;5080960;28;20143;-58
2021/10/28 04:50:00;;;;;;;10.38;4.97;;;12.20;99.90;;;;;;5063035;28;20084;-58
2021/10/28 04:52:27;;;;;;;10.27;5.07;;;12.20;99.90;;;;;;5063889;28;20080;-57
2021/10/28 04:54:53;;;;;;;11.73;4.78;;;12.20;99.90;;;;;;5064376;28;20536;-57
2021/10/28 04:57:23;;;;;;;9.95;4.75;;;12.20;99.90;;;;;;5080474;28;20205;-58
2021/10/28 04:59:50;;;;;;;8.55;4.55;;;12.20;99.90;;;;;;5081486;28;20247;-58
2021/10/28 05:02:17;;;;;;;20.60;6.68;;;12.20;99.90;;;;;;5075934;28;20582;-58
2021/10/28 05:04:44;;;;;;;11.73;5.22;;;12.20;99.90;;;;;;5078656;28;20044;-58
2021/10/28 05:07:11;;;;;;;11.25;5.03;;;12.20;99.90;;;;;;5077372;28;20082;-57
2021/10/28 05:09:40;;;;;;;14.20;5.85;;;12.20;99.90;;;;;;5076369;28;20925;-58
2021/10/28 05:12:08;;;;;;;10.98;5.03;;;12.20;99.90;;;;;;5077423;28;20444;-58
2021/10/28 05:14:37;;;;;;;11.00;5.10;;;12.20;99.90;;;;;;5076824;28;20082;-58
2021/10/28 05:17:04;;;;;;;11.93;4.85;;;12.20;99.90;;;;;;5076996;28;20058;-58
2021/10/28 05:19:34;;;;;;;11.85;5.32;;;12.20;99.90;;;;;;5076905;28;20047;-58
2021/10/28 05:22:01;;;;;;;14.45;5.93;;;12.20;99.90;;;;;;5075754;28;20605;-58
2021/10/28 05:24:27;;;;;;;14.02;5.40;;;12.20;99.90;;;;;;5077658;28;20071;-58
2021/10/28 05:26:54;;;;;;;13.10;6.22;;;12.20;99.90;;;;;;5077531;28;20305;-58
2021/10/28 05:29:21;;;;;;;14.80;6.53;;;12.20;99.90;;;;;;5075913;28;20478;-58
2021/10/28 05:31:48;;;;;;;11.85;5.20;;;12.10;99.90;;;;;;5077077;28;20051;-55
2021/10/28 05:34:14;;;;;;;9.25;4.78;;;12.20;99.90;;;;;;5080981;28;20054;-58
2021/10/28 05:36:41;;;;;;;9.40;5.32;;;12.10;99.90;;;;;;5080430;28;20126;-58
2021/10/28 05:39:08;;;;;;;10.57;4.55;;;12.10;99.90;;;;;;5081753;28;20075;-58
2021/10/28 05:41:35;;;;;;;12.23;6.53;;;12.10;99.90;;;;;;5081480;28;20123;-58
2021/10/28 05:44:02;;;;;;;9.60;4.93;;;12.00;99.90;;;;;;5080617;28;20048;-57
2021/10/28 05:46:29;;;;;;;12.23;5.82;;;12.00;99.90;;;;;;5080940;28;20083;-58
2021/10/28 05:48:56;;;;;;;14.07;6.50;;;12.00;99.90;;;;;;5078966;28;20056;-58
2021/10/28 05:51:25;;;;;;;10.40;5.13;;;12.00;99.90;;;;;;5081614;28;20078;-59
2021/10/28 05:53:52;;;;;;;15.07;5.10;;;12.00;99.90;;;;;;5078460;28;20062;-59
2021/10/28 05:56:19;;;;;;;16.02;7.63;;;12.00;99.90;;;;;;5081709;28;20135;-59
2021/10/28 05:58:46;;;;;;;16.95;6.15;;;12.00;99.90;;;;;;5079755;28;20136;-59
2021/10/28 06:01:12;;;;;;;13.27;6.50;;;12.00;99.90;;;;;;5079171;28;20486;-59
2021/10/28 06:03:42;;;;;;;13.65;5.85;;;12.00;99.90;;;;;;5080190;28;20052;-59
2021/10/28 06:06:08;;;;;;;14.75;6.55;;;11.90;99.90;;;;;;5080744;28;20578;-59
2021/10/28 06:08:36;;;;;;;12.77;5.75;;;12.00;99.90;;;;;;5080801;28;20761;-59
2021/10/28 06:11:03;;;;;;;15.35;5.78;;;11.90;99.90;;;;;;5081451;28;20137;-58
2021/10/28 06:13:30;;;;;;;10.30;6.15;;;12.00;99.90;;;;;;5080124;28;20052;-58
2021/10/28 06:15:57;;;;;;;9.43;5.22;;;12.00;99.90;;;;;;5080871;28;20131;-59
2021/10/28 06:20:53;;;;;;;13.65;6.43;;;12.00;99.90;;;;;;5080950;28;20079;-59
2021/10/28 06:23:21;;;;;;;13.27;7.20;;;12.00;99.90;;;;;;5080473;28;20052;-59
2021/10/28 06:25:48;;;;;;;12.45;7.13;;;12.00;99.90;;;;;;5080085;28;20135;-59
2021/10/28 06:28:15;;;;;;;9.65;5.40;;;12.00;99.90;;;;;;5079215;28;20402;-58
2021/10/28 06:30:42;;;;;;;11.77;5.57;;;11.90;99.90;;;;;;5080497;28;20089;-59
2021/10/28 06:33:12;;;;;;;9.38;5.30;;;11.90;99.90;;;;;;5080189;28;20283;-59
2021/10/28 06:35:42;;;;;;;9.55;4.95;;;11.90;99.90;;;;;;5077797;28;20040;-59
2021/10/28 06:38:09;;;;;;;11.57;4.75;;;11.90;99.90;;;;;;5079374;28;20127;-59
2021/10/28 06:40:37;;;;;;;12.25;5.72;;;11.80;99.90;;;;;;5080518;28;20044;-59
2021/10/28 06:43:04;;;;;;;10.68;6.13;;;11.90;99.90;;;;;;5078373;28;20440;-59
2021/10/28 06:45:31;;;;;;;7.53;4.50;;;11.90;99.90;;;;;;5079181;28;20472;-59
2021/10/28 06:47:57;;;;;;;10.38;5.43;;;11.90;99.90;;;;;;5079105;28;20511;-57
2021/10/28 06:50:37;;;;;;;13.55;5.47;;;11.90;99.90;;;;;;5075317;28;20159;-60
2021/10/28 06:53:19;;;;;;;9.27;5.40;;;11.90;99.90;;;;;;5080487;28;20079;-58
2021/10/28 06:55:55;;;;;;;11.88;4.93;;;11.90;99.90;;;;;;5078922;28;20087;-58
2021/10/28 07:03:55;;;;;;;9.52;4.35;;;12.00;99.90;;;;;;5079409;28;20055;-58
2021/10/28 07:06:25;;;;;;;13.65;5.05;;;11.90;99.90;;;;;;5079810;28;20487;-58
2021/10/28 07:08:57;;;;;;;10.02;4.43;;;11.90;99.90;;;;;;5078167;28;20047;-58
2021/10/28 07:11:30;;;;;;;6.72;4.03;;;11.90;99.90;;;;;;5079764;28;20083;-58
2021/10/28 07:13:59;;;;;;;8.93;4.95;;;12.00;99.90;;;;;;5077186;28;20432;-58
2021/10/28 07:16:42;;;;;;;10.15;4.22;;;11.90;99.90;;;;;;5080551;28;20135;-58
2021/10/28 07:19:40;;;;;;;9.27;4.28;;;12.00;99.90;;;;;;5074303;28;20036;-58
2021/10/28 07:25:00;;;;;;;9.38;4.07;;;12.00;99.90;;;;;;5080157;28;20076;-58
2021/10/28 07:30:20;;;;;;;19.20;4.70;;;12.10;99.90;;;;;;5078598;28;20101;-58
2021/10/28 08:00:10;;;;;;;7.82;3.60;;;12.70;99.90;;;;;;5072380;28;20044;-58
2021/10/28 08:22:14;;;;;;;8.05;3.08;;;13.30;99.90;;;;;;5077426;28;20048;-59
2021/10/28 08:30:21;;;;;;;9.02;3.05;;;13.40;99.90;;;;;;5076554;28;20075;-58
2021/10/28 08:32:48;;;;;;;7.93;2.90;;;13.40;99.70;;;;;;5077020;28;20071;-59
2021/10/28 08:35:36;;;;;;;5.13;2.80;;;13.50;99.80;;;;;;5073913;28;20051;-58
2021/10/28 08:38:05;;;;;;;8.00;3.20;;;13.50;99.70;;;;;;5078276;28;20451;-58
2021/10/28 08:40:32;;;;;;;5.70;2.65;;;13.50;99.60;;;;;;5078962;28;20126;-58
2021/10/28 08:43:03;;;;;;;11.68;2.58;;;13.50;99.20;;;;;;5068675;28;20051;-58
2021/10/28 08:45:34;;;;;;;6.72;2.47;;;13.50;99.40;;;;;;5077362;28;20083;-58
2021/10/28 08:48:03;;;;;;;7.22;2.58;;;13.50;99.30;;;;;;5078851;28;20396;-58
2021/10/28 08:50:39;;;;;;;10.35;2.58;;;13.50;99.60;;;;;;5079505;28;20129;-59
2021/10/28 08:55:37;;;;;;;6.15;3.50;;;13.60;99.30;;;;;;5078605;28;20188;-59
2021/10/28 09:26:51;;;;;;;3.72;2.05;;;14.30;97.50;;;;;;5081331;28;20475;-58
2021/10/28 09:29:33;;;;;;;9.13;3.25;;;14.40;97.30;;;;;;5072641;28;20079;-58
2021/10/28 09:32:52;;;;;;;13.45;3.78;;;14.50;97.40;;;;;;5080183;28;20079;-58
2021/10/28 09:46:34;;;;;;;4.43;2.60;;;14.90;95.20;;;;;;5082780;28;20444;-59
2021/10/28 09:52:09;;;;;;;12.18;3.55;;;15.00;94.20;;;;;;5060327;28;20155;-59
2021/10/28 09:55:04;;;;;;;5.45;2.47;;;15.10;94.90;;;;;;5059735;28;20135;-59
2021/10/28 09:57:56;;;;;;;5.85;2.28;;;15.30;95.30;;;;;;5079062;28;20439;-59
2021/10/28 10:00:38;;;;;;;6.93;2.13;;;15.40;94.80;;;;;;5077684;28;20048;-59
2021/10/28 10:03:10;;;;;;;4.40;2.50;;;15.50;93.70;;;;;;5081299;28;20101;-60
2021/10/28 10:05:38;;;;;;;7.53;3.10;;;15.50;94.30;;;;;;5082137;28;20048;-59
2021/10/28 10:08:07;;;;;;;6.15;2.53;;;15.50;94.10;;;;;;5080309;28;20550;-59
2021/10/28 10:10:34;;;;;;;6.75;2.30;;;15.60;94.40;;;;;;5077802;28;20231;-59
2021/10/28 10:13:02;;;;;;;7.55;2.47;;;15.60;94.10;;;;;;5081503;28;20048;-58
2021/10/28 10:15:29;;;;;;;6.03;2.13;;;15.70;94.10;;;;;;5079870;28;20052;-59
2021/10/28 10:18:02;;;;;;;6.93;3.28;;;15.80;94.00;;;;;;5080203;28;20807;-59
2021/10/28 10:20:43;;;;;;;6.07;2.45;;;15.80;93.60;;;;;;5056681;28;20190;-59
2021/10/28 11:24:13;;;;;;;5.15;2.33;;;17.10;90.20;;;;;;5079729;28;20075;-58
2021/10/28 12:45:04;;;;;;;3.63;2.38;;;18.90;85.20;;;;;;5065375;28;20139;-59
2021/10/28 12:48:00;;;;;;;8.05;2.53;;;19.10;86.60;;;;;;5081251;28;20696;-59
2021/10/28 13:59:09;;;;;;;3.40;1.55;;;19.70;76.60;;;;;;5083668;28;20044;-59
2021/10/28 14:23:08;;;;;;;7.95;1.65;;;21.70;71.90;;;;;;5082582;28;20083;-60
2021/10/28 15:31:49;;;;;;;5.68;2.67;;;17.70;83.60;;;;;;5079473;28;20052;-59
2021/10/28 15:36:48;;;;;;;8.90;4.20;;;17.30;85.70;;;;;;5079374;28;20255;-59
2021/10/28 16:22:45;;;;;;;10.57;3.38;;;15.40;92.40;;;;;;5079118;28;20076;-58
2021/10/28 16:25:12;;;;;;;8.77;3.70;;;15.30;92.80;;;;;;5076532;28;20129;-58
2021/10/28 16:27:39;;;;;;;9.57;3.60;;;15.20;93.40;;;;;;5076301;28;20101;-58
2021/10/28 16:30:07;;;;;;;8.32;3.45;;;15.10;93.10;;;;;;5078843;28;20054;-58
2021/10/28 16:32:34;;;;;;;6.78;3.50;;;14.90;93.80;;;;;;5078530;28;20044;-58
2021/10/28 16:35:05;;;;;;;8.35;3.92;;;14.90;94.00;;;;;;5079553;28;20685;-58
2021/10/28 16:37:35;;;;;;;12.27;5.35;;;14.80;94.00;;;;;;5078106;28;20131;-58
2021/10/28 16:40:05;;;;;;;10.00;3.80;;;14.70;94.20;;;;;;5078843;28;20135;-60
2021/10/28 16:42:33;;;;;;;8.90;5.03;;;14.70;93.90;;;;;;5079456;28;20127;-57
2021/10/28 16:45:00;;;;;;;8.27;3.67;;;14.60;94.10;;;;;;5070650;28;20126;-58
2021/10/28 16:47:30;;;;;;;8.48;4.20;;;14.50;94.20;;;;;;5077157;28;20131;-58
2021/10/28 16:49:57;;;;;;;11.00;4.50;;;14.50;94.20;;;;;;5076649;28;20110;-58
2021/10/28 16:52:24;;;;;;;13.07;5.18;;;14.40;93.90;;;;;;5078777;28;20052;-59
2021/10/28 16:54:51;;;;;;;9.68;5.93;;;14.40;94.20;;;;;;5078575;28;20226;-58
2021/10/28 16:57:18;;;;;;;10.00;5.78;;;14.40;94.10;;;;;;5078968;28;20048;-58
2021/10/28 16:59:45;;;;;;;6.93;5.22;;;14.40;94.50;;;;;;5073780;28;20060;-58
2021/10/28 17:02:14;;;;;;;12.23;5.10;;;14.30;94.20;;;;;;5075408;28;20143;-58
2021/10/28 17:04:42;;;;;;;12.43;4.63;;;14.30;94.40;;;;;;5077482;28;20511;-58
2021/10/28 17:07:08;;;;;;;9.23;4.10;;;14.20;94.50;;;;;;5077774;28;20124;-58
2021/10/28 17:09:35;;;;;;;8.07;4.50;;;14.20;94.40;;;;;;5077243;28;20055;-58
2021/10/28 17:12:03;;;;;;;15.73;5.45;;;14.20;94.50;;;;;;5079528;28;20052;-58
2021/10/28 17:14:30;;;;;;;9.18;4.55;;;14.10;94.60;;;;;;5077708;28;20110;-58
2021/10/28 17:16:57;;;;;;;10.15;5.40;;;14.10;94.70;;;;;;5078294;28;20103;-58
2021/10/28 17:19:24;;;;;;;14.18;5.68;;;14.10;94.70;;;;;;5076803;28;20060;-58
2021/10/28 17:21:51;;;;;;;10.15;6.43;;;14.00;95.00;;;;;;5076915;28;20135;-58
2021/10/28 17:24:25;;;;;;;10.68;4.63;;;14.00;94.80;;;;;;5078308;28;20136;-57
2021/10/28 17:26:54;;;;;;;10.15;4.07;;;13.90;95.10;;;;;;5078972;28;20744;-58
2021/10/28 17:29:21;;;;;;;6.40;3.20;;;13.90;95.10;;;;;;5078426;28;20083;-58
2021/10/28 17:31:55;;;;;;;10.65;3.78;;;13.90;95.40;;;;;;5080361;28;20411;-56
2021/10/28 17:34:23;;;;;;;8.77;3.47;;;13.80;95.70;;;;;;5081918;28;20055;-57
2021/10/28 17:36:53;;;;;;;10.85;4.82;;;13.80;95.60;;;;;;5081814;28;20125;-58
2021/10/28 17:39:21;;;;;;;8.70;4.15;;;13.80;95.70;;;;;;5071423;28;20135;-58
2021/10/28 17:41:49;;;;;;;9.95;4.68;;;13.70;96.00;;;;;;5082157;28;20051;-58
2021/10/28 17:44:17;;;;;;;14.55;4.72;;;13.70;95.70;;;;;;5079842;28;20268;-57
2021/10/28 17:46:44;;;;;;;10.27;4.13;;;13.70;95.80;;;;;;5080420;28;20079;-56
2021/10/28 17:49:11;;;;;;;13.75;5.50;;;13.70;95.80;;;;;;5082284;28;20123;-58
2021/10/28 17:51:38;;;;;;;8.70;5.38;;;13.70;96.10;;;;;;5081615;28;20109;-59
2021/10/28 17:54:09;;;;;;;12.23;4.30;;;13.60;96.10;;;;;;5080705;28;20203;-58
2021/10/28 17:56:42;;;;;;;10.77;3.78;;;13.60;96.00;;;;;;5081842;28;20186;-58
2021/10/28 17:59:11;;;;;;;6.93;3.42;;;13.60;96.20;;;;;;5080273;28;20056;-59
2021/10/28 18:01:39;;;;;;;8.10;3.53;;;13.60;96.00;;;;;;5081071;28;20087;-56
2021/10/28 18:04:06;;;;;;;9.30;5.78;;;13.50;95.90;;;;;;5079513;28;20062;-59
2021/10/28 18:06:33;;;;;;;13.95;6.47;;;13.50;96.20;;;;;;5081706;28;20156;-58
2021/10/28 18:09:01;;;;;;;9.43;4.70;;;13.50;96.10;;;;;;5077997;28;20087;-58
2021/10/28 18:11:28;;;;;;;8.07;4.88;;;13.50;95.90;;;;;;5076548;28;20572;-58
2021/10/28 18:13:57;;;;;;;9.13;4.32;;;13.50;96.10;;;;;;5079662;28;20584;-58
2021/10/28 18:16:25;;;;;;;7.05;4.07;;;13.50;96.00;;;;;;5077395;28;20127;-59
2021/10/28 18:18:53;;;;;;;8.50;3.35;;;13.50;95.90;;;;;;5076499;28;20139;-58
2021/10/28 18:21:23;;;;;;;8.60;4.10;;;13.50;96.00;;;;;;5080194;28;20551;-58
2021/10/28 18:23:50;;;;;;;9.57;3.67;;;13.50;96.10;;;;;;5081190;28;20135;-58
2021/10/28 18:26:18;;;;;;;10.63;4.63;;;13.50;96.10;;;;;;5081868;28;20119;-58
2021/10/28 18:28:45;;;;;;;7.15;3.42;;;13.50;95.70;;;;;;5078845;28;20111;-58
2021/10/28 18:31:12;;;;;;;8.15;3.30;;;13.50;95.90;;;;;;5081852;28;20079;-57
2021/10/28 18:33:40;;;;;;;9.55;3.30;;;13.50;95.70;;;;;;5080858;28;20044;-58
2021/10/28 18:36:08;;;;;;;7.32;2.75;;;13.50;95.80;;;;;;5081382;28;20137;-58
2021/10/28 18:38:36;;;;;;;6.82;2.50;;;13.50;95.60;;;;;;5079945;28;20139;-58
2021/10/28 18:41:03;;;;;;;8.20;3.08;;;13.50;95.70;;;;;;5080500;28;20146;-57
2021/10/28 18:43:31;;;;;;;7.85;2.67;;;13.50;95.40;;;;;;5079026;28;20444;-58
2021/10/28 18:45:58;;;;;;;9.63;3.50;;;13.50;95.60;;;;;;5078990;28;20127;-58
2021/10/28 18:48:25;;;;;;;7.90;3.42;;;13.50;95.70;;;;;;5078653;28;20490;-58
2021/10/28 18:50:53;;;;;;;6.32;3.60;;;13.40;95.50;;;;;;5079859;28;20052;-58
2021/10/28 18:53:20;;;;;;;11.65;3.50;;;13.40;95.60;;;;;;5079190;28;20376;-58
2021/10/28 18:55:47;;;;;;;9.43;3.40;;;13.40;96.00;;;;;;5079663;28;20130;-58
2021/10/28 18:58:14;;;;;;;7.57;3.40;;;13.40;95.70;;;;;;5079521;28;20086;-58
2021/10/28 19:00:41;;;;;;;9.05;3.65;;;13.40;95.80;;;;;;5080552;28;20467;-57
2021/10/28 19:03:08;;;;;;;7.35;2.70;;;13.40;95.70;;;;;;5080249;28;20439;-58
2021/10/28 19:05:35;;;;;;;4.97;3.00;;;13.40;95.80;;;;;;5081115;28;20091;-58
2021/10/28 19:08:05;;;;;;;5.65;2.90;;;13.40;95.70;;;;;;5079251;28;20644;-58
2021/10/28 19:10:34;;;;;;;11.35;3.50;;;13.40;95.90;;;;;;5079483;28;20082;-58
2021/10/28 19:13:01;;;;;;;7.97;4.15;;;13.50;95.80;;;;;;5080998;28;20070;-57
2021/10/28 19:15:28;;;;;;;7.57;3.85;;;13.50;95.60;;;;;;5080068;28;20079;-57
2021/10/28 19:17:56;;;;;;;12.75;3.72;;;13.50;95.50;;;;;;5080034;28;20083;-57
2021/10/28 19:20:25;;;;;;;8.30;4.53;;;13.50;95.50;;;;;;5080724;28;20392;-57
2021/10/28 19:22:54;;;;;;;9.73;3.85;;;13.60;95.70;;;;;;5080024;28;20127;-57
2021/10/28 19:25:21;;;;;;;6.05;3.05;;;13.60;95.50;;;;;;5080902;28;20051;-58
2021/10/28 19:27:54;;;;;;;9.25;3.33;;;13.60;95.50;;;;;;5081092;28;20123;-57
2021/10/28 19:30:34;;;;;;;10.00;4.05;;;13.60;95.60;;;;;;5076653;28;20180;-57
2021/10/28 19:33:08;;;;;;;7.50;4.25;;;13.60;95.60;;;;;;5078761;28;20079;-58
2021/10/28 19:35:37;;;;;;;9.05;4.72;;;13.60;95.80;;;;;;5080503;28;20081;-58
2021/10/28 19:46:25;;;;;;;8.18;3.85;;;13.60;96.10;;;;;;5080251;28;20056;-57
2021/10/28 19:48:54;;;;;;;8.70;3.65;;;13.70;96.40;;;;;;5079597;28;20052;-58
2021/10/28 19:51:21;;;;;;;9.00;3.42;;;13.60;96.10;;;;;;5079736;28;20563;-58
2021/10/28 19:53:49;;;;;;;5.05;2.92;;;13.60;96.10;;;;;;5080273;28;20435;-58
2021/10/28 19:56:18;;;;;;;7.68;4.00;;;13.60;96.40;;;;;;5080399;28;20134;-58
2021/10/28 19:58:50;;;;;;;10.02;4.20;;;13.60;96.60;;;;;;5078811;28;20080;-57
2021/10/28 20:01:29;;;;;;;9.93;4.25;;;13.60;96.80;;;;;;5080375;28;20095;-58
2021/10/28 20:20:08;;;;;;;8.63;4.22;;;13.60;97.10;;;;;;5064638;28;20121;-58
2021/10/28 20:22:36;;;;;;;9.75;4.38;;;13.60;97.40;;;;;;5079346;28;20087;-58
2021/10/28 20:25:05;;;;;;;10.30;4.70;;;13.60;97.10;;;;;;5079986;28;20102;-58
2021/10/28 20:27:32;;;;;;;12.07;4.10;;;13.60;97.50;;;;;;5079600;28;20182;-58
2021/10/28 20:29:59;;;;;;;9.10;4.55;;;13.60;97.50;;;;;;5076815;28;20060;-58
2021/10/28 20:32:26;;;;;;;14.93;4.50;;;13.70;97.40;;;;;;5079032;28;20106;-58
2021/10/28 20:37:52;;;;;;;14.40;5.57;;;13.60;97.40;;;;;;5076361;28;20683;-57
2021/10/28 20:40:19;;;;;;;13.35;5.43;;;13.70;97.40;;;;;;5079374;28;20048;-58
2021/10/28 20:42:49;;;;;;;11.70;4.82;;;13.70;97.40;;;;;;5078119;28;20127;-57
2021/10/28 20:45:21;;;;;;;11.95;4.68;;;13.70;97.60;;;;;;5078711;28;20122;-57
2021/10/28 20:47:52;;;;;;;7.93;4.30;;;13.70;97.70;;;;;;5078707;28;20488;-57
2021/10/28 20:50:23;;;;;;;10.15;5.18;;;13.70;97.90;;;;;;5077286;28;20072;-57
2021/10/28 20:52:50;;;;;;;10.35;5.15;;;13.70;97.80;;;;;;5073544;28;20056;-57
2021/10/28 20:55:17;;;;;;;13.63;5.88;;;13.70;97.80;;;;;;5077156;28;20080;-58
2021/10/28 20:57:45;;;;;;;10.30;4.80;;;13.70;97.80;;;;;;5076078;28;20076;-57
2021/10/28 21:00:14;;;;;;;14.25;6.30;;;13.70;97.90;;;;;;5075414;28;20055;-57
2021/10/28 21:02:41;;;;;;;21.00;14.60;;;13.80;97.70;;;;;;5073992;28;20135;-58
2021/10/28 21:05:11;;;;;;;12.43;5.93;;;13.80;97.90;;;;;;5081530;28;20518;-59
2021/10/28 21:07:39;;;;;;;11.20;4.93;;;13.80;97.80;;;;;;5081831;28;20453;-58
2021/10/28 21:10:06;;;;;;;12.38;4.63;;;13.90;97.90;;;;;;5078706;28;20131;-58
2021/10/28 21:12:33;;;;;;;18.13;6.35;;;13.90;97.80;;;;;;5082567;28;20050;-58
2021/10/28 21:15:00;;;;;;;11.63;5.28;;;13.90;97.70;;;;;;5079697;28;20118;-58
2021/10/28 21:17:27;;;;;;;11.13;5.50;;;13.90;97.60;;;;;;5076675;28;20170;-58
2021/10/28 21:19:54;;;;;;;13.93;5.25;;;13.90;97.90;;;;;;5080469;28;20530;-58
2021/10/28 21:22:21;;;;;;;9.43;4.93;;;13.90;97.80;;;;;;5083046;28;20040;-58
2021/10/28 21:24:50;;;;;;;15.07;6.22;;;13.90;97.80;;;;;;5077285;28;20127;-57
2021/10/28 21:27:17;;;;;;;15.48;5.18;;;13.90;97.80;;;;;;5077046;28;20130;-58
2021/10/28 21:29:45;;;;;;;10.50;4.88;;;13.90;97.80;;;;;;5080317;28;20627;-57
2021/10/28 21:32:12;;;;;;;18.27;5.47;;;13.90;97.90;;;;;;5078007;28;20133;-57
2021/10/28 21:34:40;;;;;;;11.95;5.55;;;13.90;98.00;;;;;;5082217;28;20087;-58
2021/10/28 21:37:09;;;;;;;10.73;4.85;;;14.00;97.70;;;;;;5082228;28;20059;-58
2021/10/28 21:39:36;;;;;;;14.32;5.90;;;13.90;97.90;;;;;;5079322;28;20087;-58
2021/10/28 21:42:07;;;;;;;8.65;4.22;;;13.90;97.60;;;;;;5080575;28;20051;-57
2021/10/28 21:44:34;;;;;;;12.50;8.13;;;14.00;97.70;;;;;;5079004;28;20151;-58
2021/10/28 21:47:01;;;;;;;12.32;5.28;;;14.00;97.70;;;;;;5080037;28;20147;-58
2021/10/28 21:49:28;;;;;;;14.85;5.50;;;13.90;97.80;;;;;;5080158;28;20571;-58